This is the latest recevied weather packets stored in our database for station/object DL9GRB-13. If no packets are shown the sender has not sent any weather packets the latest 1 day(s).
| Time | Temp. | Humidity | Pressure | Rain* | Wind** | Luminosity | Snow |
|---|---|---|---|---|---|---|---|
| 1778019548 | 6.67° C | 85% | 1009.3 hPa | 0 mm | 0 m/s | 0 W/m² | - |
| 1778019368 | 6.67° C | 85% | 1009.3 hPa | 0 mm | 3.13 m/s, 85° | 0 W/m² | - |
| 1778019188 | 6.67° C | 84% | 1009 hPa | 0 mm | 1.79 m/s, 127° | 0 W/m² | - |
| 1778019008 | 6.67° C | 84% | 1009.1 hPa | 0 mm | 1.79 m/s, 126° | 0 W/m² | - |
| 1778018828 | 6.67° C | 83% | 1008.9 hPa | 0 mm | 2.24 m/s, 110° | 0 W/m² | - |
| 1778018648 | 6.67° C | 83% | 1009.2 hPa | 0 mm | 2.24 m/s, 99° | 0 W/m² | - |
| 1778018468 | 6.67° C | 83% | 1009 hPa | 0 mm | 2.68 m/s, 76° | 0 W/m² | - |
| 1778018288 | 7.22° C | 83% | 1009.3 hPa | 0 mm | 1.79 m/s, 84° | 0 W/m² | - |
| 1778018108 | 7.22° C | 84% | 1009.2 hPa | 0 mm | 0 m/s | 0 W/m² | - |
| 1778017928 | 7.22° C | 84% | 1009.2 hPa | 0 mm | 0 m/s | 0 W/m² | - |
| 1778017748 | 7.22° C | 84% | 1009.2 hPa | 0 mm | 2.24 m/s, 54° | 0 W/m² | - |
| 1778017568 | 7.22° C | 84% | 1009.1 hPa | 0 mm | 2.24 m/s, 59° | 0 W/m² | - |
| 1778017388 | 7.22° C | 84% | 1009.3 hPa | 0 mm | 2.68 m/s, 88° | 0 W/m² | - |
| 1778017208 | 7.22° C | 84% | 1009.4 hPa | 0 mm | 2.24 m/s, 87° | 0 W/m² | - |
| 1778017028 | 7.22° C | 84% | 1009.2 hPa | 0 mm | 0 m/s | 0 W/m² | - |
| 1778016848 | 7.78° C | 84% | 1009.2 hPa | 0 mm | 0 m/s | 0 W/m² | - |
| 1778016668 | 7.22° C | 85% | 1009.3 hPa | 0 mm | 0 m/s | 0 W/m² | - |
| 1778016488 | 7.22° C | 86% | 1009.2 hPa | 0 mm | 0 m/s | 0 W/m² | - |
| 1778016308 | 7.22° C | 87% | 1009.5 hPa | 0 mm | 2.68 m/s, 65° | 0 W/m² | - |
| 1778016128 | 7.22° C | 87% | 1009.5 hPa | 0 mm | 2.24 m/s, 52° | 0 W/m² | - |
| 1778015948 | 7.22° C | 86% | 1009.6 hPa | 0 mm | 0 m/s | 0 W/m² | - |
| 1778015768 | 7.22° C | 86% | 1009.4 hPa | 0 mm | 0 m/s | 0 W/m² | - |
| 1778015588 | 7.78° C | 86% | 1009.3 hPa | 0 mm | 0 m/s | 0 W/m² | - |
| 1778015408 | 7.78° C | 86% | 1009.4 hPa | 0 mm | 1.79 m/s, 89° | 0 W/m² | - |
| 1778015228 | 7.78° C | 85% | 1009.5 hPa | 0 mm | 3.13 m/s, 85° | 0 W/m² | - |
* Rain latest hour (hover to see other rain measurements)
** Current wind speed in m/s (hover to see current wind gust speed)